Plympton, Massachusetts
Current Conditions -  °F | °C
As of 4:52 AM on Monday 22 Dec 2014 (Local Time) from KPYM Reporting Station
Haze Haze  
Wind Chill: 33°   Ceiling: 200
Heat Index: 33°   Visibility: 0.75mi
Dew Point: 33°   Wind: 3mph
Humidity: 100%   Direction: 300°WNW
Pressure: 30.34"   Gusts: NA
Location:  41.95°N, 70.81°W
Report Text: KPYM 220952Z AUTO 30003KT 3/4SM BR OVC002 01/01 A3034 RMK AO2 SLP274 T00060006
Loading
Personal Weather Stations






























Interactive Weather Map New forecast layout! Learn more

10-Day Weather Forecast

Advertisements
Track Severe Weather on mobile